Time;durP1;ratioP1;P1;durP2;ratioP2;P2;SDS_P1;SDS_P2;PMS_P1;PMS_P2;Temp;Humidity;BMP_temperature;BMP_pressure;BME280_temperature;BME280_humidity;BME280_pressure;Samples;Min_cycle;Max_cycle;Signal;HPM_P1;HPM_P2
2023/12/28 00:01:08;;;;;;;8.38;3.33;;;10.00;99.90;;;;;;5036379;28;20517;-62
2023/12/28 00:03:34;;;;;;;6.28;3.03;;;10.00;99.90;;;;;;5038313;28;20559;-62
2023/12/28 00:06:00;;;;;;;6.65;3.63;;;10.00;99.90;;;;;;5036069;28;20136;-62
2023/12/28 00:08:25;;;;;;;9.38;4.07;;;10.00;99.90;;;;;;5064651;28;20068;-62
2023/12/28 00:10:51;;;;;;;9.43;3.45;;;10.00;99.90;;;;;;5044656;28;20468;-60
2023/12/28 00:13:17;;;;;;;9.07;3.70;;;10.00;99.90;;;;;;5042666;28;20037;-60
2023/12/28 00:15:43;;;;;;;7.80;3.45;;;10.00;99.90;;;;;;5045246;28;20127;-59
2023/12/28 00:18:08;;;;;;;7.85;3.83;;;10.00;99.90;;;;;;5047770;28;20041;-61
2023/12/28 00:20:34;;;;;;;9.82;3.65;;;10.00;99.90;;;;;;5062596;28;20052;-61
2023/12/28 00:23:00;;;;;;;11.95;3.95;;;10.00;99.90;;;;;;5036586;28;20255;-62
2023/12/28 00:25:26;;;;;;;7.90;3.78;;;10.00;99.90;;;;;;5029554;28;20043;-62
2023/12/28 00:27:51;;;;;;;11.85;3.88;;;10.00;99.90;;;;;;5048454;28;20040;-61
2023/12/28 00:30:17;;;;;;;10.23;3.88;;;10.00;99.90;;;;;;5035744;28;20047;-62
2023/12/28 00:32:44;;;;;;;9.85;3.60;;;10.00;99.90;;;;;;5031355;28;20036;-61
2023/12/28 00:35:10;;;;;;;13.68;4.10;;;10.00;99.90;;;;;;5047892;28;20117;-61
2023/12/28 00:37:36;;;;;;;8.40;3.33;;;10.00;99.90;;;;;;5046454;28;20044;-62
2023/12/28 00:40:02;;;;;;;16.25;3.83;;;10.10;99.90;;;;;;5051186;28;20115;-62
2023/12/28 00:42:28;;;;;;;16.52;4.00;;;10.10;99.90;;;;;;5049641;28;20044;-61
2023/12/28 00:44:54;;;;;;;20.25;3.90;;;10.20;99.90;;;;;;5032004;28;20040;-61
2023/12/28 00:47:19;;;;;;;24.00;4.10;;;10.30;99.90;;;;;;5025564;28;20036;-62
2023/12/28 00:49:45;;;;;;;18.23;4.05;;;10.40;99.90;;;;;;5028477;28;20048;-62
2023/12/28 00:52:11;;;;;;;19.00;4.47;;;10.40;99.90;;;;;;5033784;28;20534;-61
2023/12/28 00:54:37;;;;;;;24.45;4.45;;;10.40;99.90;;;;;;5045888;28;20116;-63
2023/12/28 00:57:03;;;;;;;20.63;4.13;;;10.50;99.90;;;;;;5024977;28;20047;-62
2023/12/28 00:59:32;;;;;;;17.80;3.85;;;10.50;99.90;;;;;;5038580;28;20059;-61
2023/12/28 01:01:58;;;;;;;26.33;5.10;;;10.40;99.90;;;;;;5034728;28;20058;-63
2023/12/28 01:04:23;;;;;;;17.65;3.88;;;10.40;99.90;;;;;;5038259;28;20676;-62
2023/12/28 01:06:49;;;;;;;26.65;4.75;;;10.40;99.90;;;;;;5046577;28;20093;-62
2023/12/28 01:09:15;;;;;;;28.77;4.82;;;10.40;99.90;;;;;;5044909;28;20047;-62
2023/12/28 01:11:41;;;;;;;21.90;4.43;;;10.40;99.90;;;;;;5041561;28;20044;-62
2023/12/28 01:14:07;;;;;;;23.80;5.10;;;10.40;99.90;;;;;;5057248;28;20049;-62
2023/12/28 01:16:33;;;;;;;20.85;5.38;;;10.30;99.90;;;;;;5032191;28;20032;-61
2023/12/28 01:18:59;;;;;;;22.35;4.10;;;10.30;99.90;;;;;;5048571;28;21505;-62
2023/12/28 01:21:24;;;;;;;20.00;4.05;;;10.30;99.90;;;;;;5045804;28;20074;-62
2023/12/28 01:23:51;;;;;;;21.65;3.65;;;10.40;99.90;;;;;;5044450;28;20044;-62
2023/12/28 01:26:17;;;;;;;23.85;4.35;;;10.30;99.90;;;;;;5033134;28;20383;-62
2023/12/28 01:28:43;;;;;;;18.90;4.32;;;10.40;99.90;;;;;;5050474;28;20044;-62
2023/12/28 01:31:09;;;;;;;28.08;5.32;;;10.40;99.90;;;;;;5041044;28;20916;-61
2023/12/28 01:33:35;;;;;;;29.35;4.93;;;10.40;99.90;;;;;;5045487;28;20025;-61
2023/12/28 01:36:01;;;;;;;22.45;4.65;;;10.40;99.90;;;;;;5046851;28;20413;-61
2023/12/28 01:38:27;;;;;;;23.52;4.65;;;10.40;99.90;;;;;;5036123;28;20127;-59
2023/12/28 01:40:53;;;;;;;24.55;5.43;;;10.40;99.90;;;;;;5042596;28;20076;-61
2023/12/28 01:43:19;;;;;;;19.73;4.53;;;10.40;99.90;;;;;;5046599;28;20048;-62
2023/12/28 01:45:45;;;;;;;17.83;3.92;;;10.40;99.90;;;;;;5029609;28;20143;-62
2023/12/28 01:48:13;;;;;;;19.25;4.03;;;10.40;99.90;;;;;;5054220;28;20057;-62
2023/12/28 01:50:39;;;;;;;27.80;5.65;;;10.40;99.90;;;;;;5058457;28;20043;-62
2023/12/28 01:53:06;;;;;;;22.85;4.40;;;10.40;99.90;;;;;;5043492;28;20402;-62
2023/12/28 01:55:33;;;;;;;20.17;3.75;;;10.40;99.90;;;;;;5011004;28;20029;-62
2023/12/28 01:57:59;;;;;;;26.90;4.55;;;10.40;99.90;;;;;;5031004;28;20433;-61
2023/12/28 02:00:25;;;;;;;25.02;4.88;;;10.40;99.90;;;;;;5050077;28;20037;-62
2023/12/28 02:02:51;;;;;;;25.98;5.05;;;10.40;99.90;;;;;;5045885;28;20045;-60
2023/12/28 02:05:18;;;;;;;20.42;3.83;;;10.40;99.90;;;;;;5049084;28;20040;-62
2023/12/28 02:07:44;;;;;;;23.00;4.60;;;10.40;99.90;;;;;;5043042;28;20044;-62
2023/12/28 02:10:09;;;;;;;25.67;4.18;;;10.40;99.90;;;;;;5031219;28;20532;-62
2023/12/28 02:12:35;;;;;;;30.42;5.18;;;10.40;99.90;;;;;;5024756;28;20032;-62
2023/12/28 02:15:01;;;;;;;22.23;3.67;;;10.40;99.90;;;;;;5045035;28;20052;-62
2023/12/28 02:17:49;;;;;;;25.58;4.90;;;10.50;99.90;;;;;;5042630;28;20085;-61
2023/12/28 02:20:16;;;;;;;26.42;4.63;;;10.50;99.90;;;;;;5044701;28;20048;-61
2023/12/28 02:22:42;;;;;;;18.88;3.42;;;10.50;99.90;;;;;;5045930;28;20456;-61
2023/12/28 02:25:09;;;;;;;21.88;4.22;;;10.50;99.90;;;;;;5045000;28;20056;-61
2023/12/28 02:27:38;;;;;;;23.45;4.30;;;10.50;99.90;;;;;;5043459;28;20080;-61
2023/12/28 02:30:05;;;;;;;19.30;4.15;;;10.50;99.90;;;;;;5041709;28;20098;-60
2023/12/28 02:32:53;;;;;;;24.25;4.80;;;10.50;99.90;;;;;;5029912;28;20110;-61
2023/12/28 02:35:33;;;;;;;16.27;3.50;;;10.50;99.90;;;;;;5042723;28;20044;-61
2023/12/28 02:38:05;;;;;;;14.68;5.30;;;10.50;99.90;;;;;;5026907;28;20110;-62
2023/12/28 02:40:38;;;;;;;18.20;3.63;;;10.50;99.90;;;;;;5045199;28;20044;-62
2023/12/28 02:43:08;;;;;;;21.48;4.38;;;10.50;99.90;;;;;;5031044;28;20124;-62
2023/12/28 02:45:34;;;;;;;16.98;3.20;;;10.50;99.90;;;;;;5049254;28;20400;-61
2023/12/28 02:48:01;;;;;;;21.90;4.38;;;10.50;99.90;;;;;;5058633;28;20553;-62
2023/12/28 02:50:26;;;;;;;14.57;3.05;;;10.50;99.90;;;;;;5042444;28;20094;-62
2023/12/28 02:52:52;;;;;;;14.00;3.10;;;10.50;99.90;;;;;;5046714;28;20117;-61
2023/12/28 02:55:18;;;;;;;17.05;3.38;;;10.50;99.90;;;;;;5051581;28;20072;-61
2023/12/28 02:57:47;;;;;;;12.32;2.53;;;10.60;99.90;;;;;;5033555;28;20108;-61
2023/12/28 03:00:13;;;;;;;14.07;3.22;;;10.60;99.90;;;;;;5069201;28;20154;-60
2023/12/28 03:02:38;;;;;;;16.55;3.88;;;10.60;99.90;;;;;;5051007;28;20288;-62
2023/12/28 03:05:05;;;;;;;18.58;3.30;;;10.60;99.90;;;;;;5045226;28;20040;-61
2023/12/28 03:07:32;;;;;;;13.27;2.70;;;10.60;99.90;;;;;;5049844;28;20161;-62
2023/12/28 03:09:58;;;;;;;19.50;3.45;;;10.60;99.90;;;;;;5045515;28;20409;-62
2023/12/28 03:12:23;;;;;;;18.48;3.17;;;10.60;99.90;;;;;;5031811;28;20048;-62
2023/12/28 03:14:49;;;;;;;13.60;2.75;;;10.60;99.90;;;;;;5034313;28;20237;-62
2023/12/28 03:17:15;;;;;;;17.35;3.63;;;10.60;99.90;;;;;;5034848;28;20036;-61
2023/12/28 03:19:41;;;;;;;13.63;2.80;;;10.60;99.90;;;;;;5035148;28;20044;-62
2023/12/28 03:22:06;;;;;;;15.10;3.08;;;10.50;99.90;;;;;;5060272;28;20497;-62
2023/12/28 03:24:32;;;;;;;10.40;2.50;;;10.50;99.90;;;;;;5054009;28;20115;-62
2023/12/28 03:26:58;;;;;;;21.60;3.78;;;10.60;99.90;;;;;;5046239;28;20113;-62
2023/12/28 03:29:24;;;;;;;14.45;3.20;;;10.50;99.90;;;;;;5047599;28;20048;-62
2023/12/28 03:31:50;;;;;;;16.33;3.25;;;10.50;99.90;;;;;;5055819;28;20036;-61
2023/12/28 03:34:16;;;;;;;15.40;3.45;;;10.50;99.90;;;;;;5063511;28;20501;-62
2023/12/28 03:36:42;;;;;;;20.25;3.83;;;10.50;99.90;;;;;;5037493;28;20044;-61
2023/12/28 03:39:08;;;;;;;11.68;2.72;;;10.50;99.90;;;;;;5034077;28;20588;-61
2023/12/28 03:41:34;;;;;;;12.43;3.03;;;10.50;99.90;;;;;;5047103;28;21735;-62
2023/12/28 03:44:00;;;;;;;13.55;2.95;;;10.50;99.90;;;;;;5033533;28;20040;-62
2023/12/28 03:46:26;;;;;;;11.73;2.72;;;10.50;99.90;;;;;;5036205;28;20040;-61
2023/12/28 03:48:53;;;;;;;18.55;3.00;;;10.50;99.90;;;;;;5049728;28;20459;-61
2023/12/28 03:51:19;;;;;;;12.00;2.83;;;10.50;99.90;;;;;;5033035;28;20044;-62
2023/12/28 03:53:44;;;;;;;11.27;3.53;;;10.50;99.90;;;;;;5047758;28;20066;-62
2023/12/28 03:56:26;;;;;;;10.98;3.00;;;10.50;99.90;;;;;;5044094;28;20623;-62
2023/12/28 03:58:52;;;;;;;9.18;2.75;;;10.60;99.90;;;;;;5028811;28;20090;-62
2023/12/28 04:01:22;;;;;;;10.77;2.45;;;10.60;99.90;;;;;;5053256;28;20055;-61
2023/12/28 04:03:48;;;;;;;14.27;3.08;;;10.60;99.90;;;;;;5045466;28;20071;-61
2023/12/28 04:06:14;;;;;;;11.98;2.80;;;10.60;99.90;;;;;;5053048;28;20444;-61
2023/12/28 04:08:41;;;;;;;11.82;2.67;;;10.60;99.90;;;;;;5035740;28;20565;-62
2023/12/28 04:11:07;;;;;;;15.75;4.30;;;10.60;99.90;;;;;;5050077;28;20394;-61
2023/12/28 04:13:33;;;;;;;10.18;2.83;;;10.60;99.90;;;;;;5033055;28;20637;-62
2023/12/28 04:15:59;;;;;;;9.35;2.42;;;10.60;99.90;;;;;;5051760;28;20036;-62
2023/12/28 04:18:25;;;;;;;16.58;3.83;;;10.60;99.90;;;;;;5028894;28;20493;-62
2023/12/28 04:20:51;;;;;;;14.98;3.88;;;10.60;99.90;;;;;;5032667;28;20044;-62
2023/12/28 04:23:16;;;;;;;5.65;2.15;;;10.60;99.90;;;;;;5048850;28;20052;-62
2023/12/28 04:25:42;;;;;;;14.18;3.22;;;10.60;99.90;;;;;;5048212;28;20048;-62
2023/12/28 04:28:08;;;;;;;11.90;3.00;;;10.60;99.90;;;;;;5049817;28;20040;-62
2023/12/28 04:30:34;;;;;;;13.75;2.83;;;10.60;99.90;;;;;;5050114;28;20059;-61
2023/12/28 04:33:03;;;;;;;10.63;3.15;;;10.70;99.90;;;;;;5032067;28;20045;-61
2023/12/28 04:35:29;;;;;;;14.98;3.40;;;10.70;99.90;;;;;;5032175;28;20028;-63
2023/12/28 04:37:54;;;;;;;12.07;3.17;;;10.60;99.90;;;;;;5033324;28;20034;-61
2023/12/28 04:40:20;;;;;;;13.73;2.72;;;10.60;99.90;;;;;;5067696;28;20041;-62
2023/12/28 04:42:46;;;;;;;13.35;2.78;;;10.60;99.90;;;;;;5030862;28;20117;-61
2023/12/28 04:45:12;;;;;;;11.13;3.00;;;10.60;99.90;;;;;;5049663;28;20064;-61
2023/12/28 04:47:38;;;;;;;11.65;2.80;;;10.60;99.90;;;;;;5047891;28;20412;-61
2023/12/28 04:50:04;;;;;;;17.60;3.00;;;10.60;99.90;;;;;;5035266;28;20154;-61
2023/12/28 04:52:30;;;;;;;11.98;2.90;;;10.50;99.90;;;;;;5046504;28;20122;-61
2023/12/28 04:54:56;;;;;;;13.80;2.70;;;10.50;99.90;;;;;;5049796;28;20502;-62
2023/12/28 04:57:24;;;;;;;12.88;2.60;;;10.50;99.90;;;;;;5050201;28;20036;-61
2023/12/28 04:59:50;;;;;;;16.05;3.20;;;10.50;99.90;;;;;;5032742;28;20055;-62
2023/12/28 05:02:16;;;;;;;17.02;3.33;;;10.50;99.90;;;;;;5065684;28;20037;-62
2023/12/28 05:04:41;;;;;;;17.33;3.72;;;10.50;99.90;;;;;;5047191;28;20072;-61
2023/12/28 05:07:08;;;;;;;14.38;3.00;;;10.50;99.90;;;;;;5047882;28;20032;-61
2023/12/28 05:09:33;;;;;;;13.75;3.58;;;10.60;99.90;;;;;;5048960;28;20539;-61
2023/12/28 05:11:59;;;;;;;17.80;3.40;;;10.60;99.90;;;;;;5030231;28;20044;-62
2023/12/28 05:14:25;;;;;;;18.40;4.03;;;10.60;99.90;;;;;;5034213;28;20044;-61
2023/12/28 05:16:50;;;;;;;14.52;3.05;;;10.60;99.90;;;;;;5053337;28;20532;-62
2023/12/28 05:19:16;;;;;;;21.42;3.88;;;10.70;99.90;;;;;;5051540;28;20374;-61
2023/12/28 05:21:42;;;;;;;18.70;3.35;;;10.60;99.90;;;;;;5049328;28;20044;-62
2023/12/28 05:24:09;;;;;;;17.60;3.42;;;10.70;99.90;;;;;;5051088;28;20097;-61
2023/12/28 05:26:35;;;;;;;15.57;3.22;;;10.70;99.90;;;;;;5029749;28;20048;-63
2023/12/28 05:29:00;;;;;;;27.17;3.40;;;10.70;99.90;;;;;;5046168;28;20345;-63
2023/12/28 05:31:26;;;;;;;18.55;3.42;;;10.70;99.90;;;;;;5048684;28;20513;-63
2023/12/28 05:33:52;;;;;;;28.65;4.93;;;10.80;99.90;;;;;;5059265;28;20417;-63
2023/12/28 05:36:18;;;;;;;15.38;4.10;;;10.80;99.90;;;;;;5052017;28;20067;-63
2023/12/28 05:38:43;;;;;;;21.50;4.43;;;10.80;99.90;;;;;;5045297;28;20464;-63
2023/12/28 05:41:12;;;;;;;16.00;4.00;;;10.80;99.90;;;;;;5051651;28;20055;-63
2023/12/28 05:43:38;;;;;;;19.05;5.28;;;10.80;99.90;;;;;;5049720;28;20456;-63
2023/12/28 05:46:04;;;;;;;20.30;4.25;;;10.80;99.90;;;;;;5044036;28;20132;-63
2023/12/28 05:48:30;;;;;;;17.70;2.97;;;10.80;99.90;;;;;;5065337;28;20051;-63
2023/12/28 05:50:59;;;;;;;29.17;5.50;;;10.80;99.90;;;;;;5048043;28;20123;-63
2023/12/28 05:53:26;;;;;;;18.02;4.70;;;10.80;99.90;;;;;;5051756;28;20040;-63
2023/12/28 05:55:52;;;;;;;22.35;4.28;;;10.80;99.90;;;;;;5029516;28;20087;-64
2023/12/28 05:58:18;;;;;;;27.40;3.72;;;10.80;99.90;;;;;;5050953;28;20044;-63
2023/12/28 06:00:46;;;;;;;25.10;4.15;;;10.80;99.90;;;;;;5037255;28;20040;-62
2023/12/28 06:03:11;;;;;;;20.45;4.18;;;10.80;99.90;;;;;;5047379;28;20039;-63
2023/12/28 06:05:37;;;;;;;18.15;3.55;;;10.80;99.90;;;;;;5050273;28;20041;-63
2023/12/28 06:08:03;;;;;;;26.30;3.42;;;10.80;99.90;;;;;;5032018;28;20280;-63
2023/12/28 06:10:29;;;;;;;16.67;3.25;;;10.80;99.90;;;;;;5050267;28;20098;-62
2023/12/28 06:12:55;;;;;;;23.08;4.03;;;10.80;99.90;;;;;;5029123;28;20040;-64
2023/12/28 06:15:21;;;;;;;20.10;3.60;;;10.80;99.90;;;;;;5051164;28;20119;-63
2023/12/28 06:17:46;;;;;;;16.13;3.83;;;10.80;99.90;;;;;;5048139;28;20040;-63
2023/12/28 06:20:12;;;;;;;22.05;4.72;;;10.80;99.90;;;;;;5067300;28;20119;-63
2023/12/28 06:22:38;;;;;;;26.25;3.60;;;10.80;99.90;;;;;;5031413;28;20044;-63
2023/12/28 06:25:05;;;;;;;17.63;3.40;;;10.80;99.90;;;;;;5047652;28;20052;-63
2023/12/28 06:27:30;;;;;;;17.38;3.58;;;10.90;99.90;;;;;;5037260;28;20032;-64
2023/12/28 06:29:56;;;;;;;26.65;5.65;;;10.90;99.90;;;;;;5048130;28;20052;-64
2023/12/28 06:32:22;;;;;;;14.32;3.15;;;10.90;99.90;;;;;;5060804;28;20513;-63
2023/12/28 06:34:48;;;;;;;24.88;4.28;;;10.90;99.90;;;;;;5065025;28;20032;-64
2023/12/28 06:37:14;;;;;;;28.77;5.82;;;10.90;99.90;;;;;;5055349;28;20408;-63
2023/12/28 06:39:40;;;;;;;29.08;5.40;;;10.90;99.90;;;;;;5051860;28;20402;-63
2023/12/28 06:42:06;;;;;;;26.55;5.13;;;10.90;99.90;;;;;;5073983;28;20037;-63
2023/12/28 06:44:32;;;;;;;25.67;4.10;;;10.90;99.90;;;;;;5053200;28;20071;-63
2023/12/28 06:46:58;;;;;;;22.25;4.70;;;11.00;99.90;;;;;;5052211;28;20499;-63
2023/12/28 06:49:24;;;;;;;21.65;4.88;;;11.00;99.90;;;;;;5051901;28;20033;-63
2023/12/28 06:51:50;;;;;;;23.42;4.05;;;11.10;99.90;;;;;;5032211;28;20108;-63
2023/12/28 06:54:16;;;;;;;27.05;4.53;;;11.10;99.90;;;;;;5066270;28;20032;-63
2023/12/28 06:56:42;;;;;;;30.27;7.20;;;11.10;99.90;;;;;;5048509;28;20047;-63
2023/12/28 06:59:11;;;;;;;30.88;5.05;;;11.10;99.90;;;;;;5053522;28;20080;-63
2023/12/28 07:01:38;;;;;;;26.23;6.30;;;11.20;99.90;;;;;;5048273;28;20046;-64
2023/12/28 07:04:04;;;;;;;27.30;5.03;;;11.20;99.90;;;;;;5069432;28;20049;-63
2023/12/28 07:06:30;;;;;;;37.60;7.03;;;11.20;99.90;;;;;;5047399;28;20041;-63
2023/12/28 07:08:55;;;;;;;26.73;5.05;;;11.20;99.90;;;;;;5059428;28;20045;-63
2023/12/28 07:11:22;;;;;;;27.00;5.75;;;11.20;99.90;;;;;;5049151;28;20052;-63
2023/12/28 07:13:48;;;;;;;35.80;6.13;;;11.10;99.90;;;;;;5054707;28;20221;-63
2023/12/28 07:16:13;;;;;;;27.10;5.45;;;11.10;99.90;;;;;;5052890;28;20528;-63
2023/12/28 07:18:39;;;;;;;26.58;5.38;;;11.10;99.90;;;;;;5047860;28;20171;-63
2023/12/28 07:21:09;;;;;;;34.17;5.72;;;11.10;99.90;;;;;;5045702;28;20075;-63
2023/12/28 07:23:35;;;;;;;37.90;7.22;;;11.20;99.90;;;;;;5068067;28;20048;-63
2023/12/28 07:26:00;;;;;;;32.35;6.47;;;11.20;99.90;;;;;;5069670;28;20094;-64
2023/12/28 07:28:26;;;;;;;32.45;6.03;;;11.20;99.90;;;;;;5035509;28;20122;-64
2023/12/28 07:30:52;;;;;;;25.83;5.60;;;11.30;99.90;;;;;;5049946;28;20435;-63
2023/12/28 07:33:18;;;;;;;35.83;6.32;;;11.30;99.90;;;;;;5055533;28;20049;-64
2023/12/28 07:35:44;;;;;;;34.13;5.90;;;11.40;99.90;;;;;;5032527;28;20037;-64
2023/12/28 07:38:09;;;;;;;38.53;6.60;;;11.40;99.90;;;;;;5048624;28;20040;-64
2023/12/28 07:40:35;;;;;;;38.15;7.63;;;11.40;99.90;;;;;;5056495;28;20137;-64
2023/12/28 07:43:01;;;;;;;36.22;6.53;;;11.50;99.90;;;;;;5063061;28;20701;-63
2023/12/28 07:45:26;;;;;;;40.97;7.07;;;11.50;99.90;;;;;;5047308;28;20041;-64
2023/12/28 07:47:52;;;;;;;40.10;7.53;;;11.50;99.90;;;;;;5044564;28;20037;-63
2023/12/28 07:50:19;;;;;;;38.53;7.75;;;11.50;99.90;;;;;;5045622;28;20032;-63
2023/12/28 07:52:46;;;;;;;44.90;7.43;;;11.50;99.90;;;;;;5051606;28;20515;-63
2023/12/28 07:55:12;;;;;;;33.17;6.78;;;11.50;99.90;;;;;;5034110;28;20132;-63
2023/12/28 07:57:38;;;;;;;33.30;6.95;;;11.50;99.90;;;;;;5030131;28;20037;-64
2023/12/28 08:00:05;;;;;;;26.90;6.20;;;11.50;99.90;;;;;;5044491;28;20133;-63
2023/12/28 08:02:31;;;;;;;43.75;9.57;;;11.50;99.90;;;;;;5018085;28;20076;-63
2023/12/28 08:04:57;;;;;;;37.15;6.85;;;11.50;99.90;;;;;;5036495;28;20127;-63
2023/12/28 08:07:22;;;;;;;41.13;7.25;;;11.50;99.90;;;;;;5047493;28;20072;-64
2023/12/28 08:09:51;;;;;;;29.58;7.20;;;11.50;99.90;;;;;;5048439;28;20448;-64
2023/12/28 08:12:17;;;;;;;40.10;8.52;;;11.50;99.90;;;;;;5034475;28;20059;-64
2023/12/28 08:14:43;;;;;;;33.88;6.95;;;11.50;99.90;;;;;;5045035;28;20039;-63
2023/12/28 08:17:09;;;;;;;36.72;7.40;;;11.50;99.90;;;;;;5048701;28;20037;-63
2023/12/28 08:19:35;;;;;;;42.25;8.13;;;11.50;99.90;;;;;;5045292;28;20040;-63
2023/12/28 08:22:02;;;;;;;40.65;8.43;;;11.50;99.90;;;;;;5050413;28;20055;-64
2023/12/28 08:24:28;;;;;;;37.80;7.15;;;11.50;99.90;;;;;;5031737;28;20036;-63
2023/12/28 08:26:54;;;;;;;42.00;8.02;;;11.50;99.90;;;;;;5052500;28;20106;-63
2023/12/28 08:29:20;;;;;;;33.28;7.20;;;11.60;99.90;;;;;;5033062;28;20033;-64
2023/12/28 08:31:45;;;;;;;42.70;8.25;;;11.60;99.90;;;;;;5028354;28;20158;-63
2023/12/28 08:34:11;;;;;;;30.73;6.90;;;11.60;99.90;;;;;;5046596;28;20330;-63
2023/12/28 08:36:37;;;;;;;37.78;7.30;;;11.60;99.90;;;;;;5029252;28;20037;-64
2023/12/28 08:39:03;;;;;;;32.70;6.47;;;11.60;99.90;;;;;;5050950;28;20087;-64
2023/12/28 08:41:29;;;;;;;38.70;7.38;;;11.60;99.90;;;;;;5021650;28;20068;-64
2023/12/28 08:43:55;;;;;;;44.53;7.95;;;11.60;99.90;;;;;;5013555;28;20431;-63
2023/12/28 08:46:27;;;;;;;50.72;8.52;;;11.60;99.90;;;;;;5042226;28;20040;-63
2023/12/28 08:48:52;;;;;;;39.92;7.80;;;11.60;99.90;;;;;;5045673;28;20068;-63
2023/12/28 08:51:18;;;;;;;38.72;7.90;;;11.60;99.90;;;;;;5047144;28;20551;-63
2023/12/28 08:53:44;;;;;;;35.10;8.23;;;11.60;99.90;;;;;;5045587;28;20036;-63
2023/12/28 08:56:16;;;;;;;33.28;6.32;;;11.60;99.90;;;;;;5044945;28;20040;-63
2023/12/28 08:58:42;;;;;;;39.10;7.95;;;11.70;99.90;;;;;;5048186;28;20044;-63
2023/12/28 09:01:08;;;;;;;37.83;6.63;;;11.60;99.90;;;;;;5028696;28;20401;-64
2023/12/28 09:03:33;;;;;;;31.48;6.28;;;11.60;99.90;;;;;;5042815;28;20131;-64
2023/12/28 09:05:59;;;;;;;40.67;7.55;;;11.60;99.90;;;;;;5040771;28;20051;-64
2023/12/28 09:08:25;;;;;;;36.75;8.55;;;11.60;99.90;;;;;;5032769;28;20424;-63
2023/12/28 09:10:51;;;;;;;31.90;6.40;;;11.60;99.90;;;;;;5029635;28;20040;-64
2023/12/28 09:13:17;;;;;;;43.78;7.88;;;11.60;99.90;;;;;;5050351;28;20047;-64
2023/12/28 09:15:43;;;;;;;36.88;8.05;;;11.60;99.90;;;;;;5067523;28;20123;-64
2023/12/28 09:18:09;;;;;;;36.83;7.22;;;11.60;99.90;;;;;;5032144;28;20032;-64
2023/12/28 09:20:35;;;;;;;30.30;6.15;;;11.60;99.90;;;;;;5044488;28;20170;-63
2023/12/28 09:23:01;;;;;;;42.08;7.80;;;11.60;99.90;;;;;;5050134;28;22445;-64
2023/12/28 09:25:27;;;;;;;32.15;6.45;;;11.60;99.90;;;;;;5035835;28;20158;-63
2023/12/28 09:27:53;;;;;;;31.92;6.88;;;11.70;99.90;;;;;;5066320;28;20501;-64
2023/12/28 09:30:19;;;;;;;31.08;6.40;;;11.70;99.90;;;;;;5042659;28;20041;-63
2023/12/28 09:32:45;;;;;;;35.05;8.23;;;11.70;99.90;;;;;;5046548;28;20044;-64
2023/12/28 09:35:10;;;;;;;37.35;6.57;;;11.70;99.90;;;;;;5042024;28;20040;-63
2023/12/28 09:37:36;;;;;;;33.40;6.43;;;11.70;99.90;;;;;;5046441;28;20036;-63
2023/12/28 09:40:03;;;;;;;39.38;7.45;;;11.70;99.90;;;;;;5049954;28;20054;-63
2023/12/28 09:42:48;;;;;;;33.33;6.65;;;11.70;99.90;;;;;;5050116;28;20186;-63
2023/12/28 09:45:14;;;;;;;35.92;7.18;;;11.70;99.90;;;;;;5058357;28;20129;-64
2023/12/28 09:47:42;;;;;;;34.00;6.13;;;11.70;99.90;;;;;;5045747;28;20070;-63
2023/12/28 09:50:09;;;;;;;36.70;6.75;;;11.70;99.90;;;;;;5044219;28;20032;-63
2023/12/28 09:52:34;;;;;;;40.83;6.97;;;11.70;99.90;;;;;;5043059;28;20127;-63
2023/12/28 09:55:00;;;;;;;28.30;5.90;;;11.70;99.90;;;;;;5047987;28;20119;-63
2023/12/28 09:57:26;;;;;;;31.63;5.68;;;11.70;99.90;;;;;;5031110;28;20119;-63
2023/12/28 09:59:52;;;;;;;41.25;8.10;;;11.70;99.90;;;;;;5047494;28;20097;-63
2023/12/28 10:02:18;;;;;;;35.78;7.18;;;11.70;99.90;;;;;;5024614;28;20052;-64
2023/12/28 10:04:44;;;;;;;41.17;8.20;;;11.70;99.90;;;;;;5031558;28;20052;-64
2023/12/28 10:07:10;;;;;;;31.45;7.15;;;11.70;99.90;;;;;;5016241;28;20493;-63
2023/12/28 10:09:35;;;;;;;38.17;7.88;;;11.80;99.90;;;;;;5042100;28;20032;-63
2023/12/28 10:12:06;;;;;;;33.88;6.60;;;11.80;99.90;;;;;;5044288;28;20047;-63
2023/12/28 10:14:31;;;;;;;33.00;6.68;;;11.70;99.90;;;;;;5044756;28;20083;-64
2023/12/28 10:16:57;;;;;;;33.70;6.65;;;11.70;99.90;;;;;;5043904;28;20316;-63
2023/12/28 10:19:23;;;;;;;32.28;5.63;;;11.70;99.90;;;;;;5041805;28;20124;-64
2023/12/28 10:21:49;;;;;;;30.83;6.55;;;11.70;99.90;;;;;;5042766;28;20048;-63
2023/12/28 10:24:15;;;;;;;29.88;6.20;;;11.80;99.90;;;;;;5030634;28;20032;-64
2023/12/28 10:26:40;;;;;;;37.25;6.50;;;11.80;99.90;;;;;;5046708;28;20515;-63
2023/12/28 10:29:06;;;;;;;34.08;6.68;;;11.80;99.90;;;;;;5027971;28;20055;-62
2023/12/28 10:31:32;;;;;;;31.73;6.40;;;11.70;99.90;;;;;;5062747;28;20036;-63
2023/12/28 10:34:07;;;;;;;30.02;5.78;;;11.70;99.90;;;;;;5049266;28;20440;-62
2023/12/28 10:36:36;;;;;;;27.75;5.13;;;11.60;99.90;;;;;;5033038;28;20064;-61
2023/12/28 10:39:04;;;;;;;28.23;6.28;;;11.60;99.90;;;;;;5015153;28;20052;-62
2023/12/28 10:41:32;;;;;;;26.08;6.65;;;11.50;99.90;;;;;;5043207;28;20037;-62
2023/12/28 10:44:05;;;;;;;29.02;5.38;;;11.50;99.90;;;;;;5047085;28;20464;-61
2023/12/28 10:46:35;;;;;;;27.30;5.18;;;11.50;99.90;;;;;;5043283;28;20072;-62
2023/12/28 10:49:12;;;;;;;31.98;5.22;;;11.40;99.90;;;;;;5040270;28;20123;-61
2023/12/28 10:51:43;;;;;;;30.15;6.00;;;11.40;99.90;;;;;;5025172;28;20052;-61
2023/12/28 10:54:31;;;;;;;26.77;5.13;;;11.40;99.90;;;;;;5045288;28;20063;-62
2023/12/28 10:57:06;;;;;;;25.73;4.45;;;11.30;99.90;;;;;;5044724;28;20457;-62
2023/12/28 10:59:32;;;;;;;32.90;5.90;;;11.30;99.90;;;;;;5054716;28;20044;-62
2023/12/28 11:02:01;;;;;;;29.52;6.88;;;11.30;99.90;;;;;;5047042;28;20036;-62
2023/12/28 11:04:49;;;;;;;36.53;7.05;;;11.30;99.90;;;;;;5047943;28;20533;-62
2023/12/28 11:07:18;;;;;;;29.48;5.20;;;11.30;99.90;;;;;;5045071;28;20041;-62
2023/12/28 11:09:45;;;;;;;28.27;6.38;;;11.30;99.90;;;;;;5046808;28;20421;-62
2023/12/28 11:12:11;;;;;;;25.10;5.93;;;11.30;99.90;;;;;;5025170;28;20522;-62
2023/12/28 11:14:39;;;;;;;32.00;5.75;;;11.30;99.90;;;;;;5052077;28;20036;-62
2023/12/28 11:17:05;;;;;;;25.35;7.43;;;11.30;99.90;;;;;;5033347;28;20076;-62
2023/12/28 11:19:33;;;;;;;25.15;5.10;;;11.30;99.90;;;;;;5048287;28;20582;-62
2023/12/28 11:22:01;;;;;;;29.83;5.82;;;11.30;99.90;;;;;;5041571;28;20063;-62
2023/12/28 11:24:29;;;;;;;25.48;5.03;;;11.40;99.90;;;;;;5062394;28;20492;-62
2023/12/28 11:26:55;;;;;;;31.63;5.70;;;11.40;99.90;;;;;;5065236;28;20093;-61
2023/12/28 11:29:22;;;;;;;28.20;5.20;;;11.40;99.90;;;;;;5031688;28;20426;-62
2023/12/28 11:31:52;;;;;;;38.10;5.78;;;11.40;99.90;;;;;;5010011;28;20058;-62
2023/12/28 11:34:18;;;;;;;32.35;6.00;;;11.40;99.90;;;;;;5047740;28;20586;-62
2023/12/28 11:37:10;;;;;;;33.17;5.30;;;11.50;99.90;;;;;;5047747;28;20041;-62
2023/12/28 11:39:44;;;;;;;26.77;5.28;;;11.50;99.90;;;;;;5037386;28;20044;-62
2023/12/28 11:42:11;;;;;;;29.25;6.22;;;11.50;99.90;;;;;;5047423;28;20111;-62
2023/12/28 11:44:41;;;;;;;29.83;5.60;;;11.40;99.90;;;;;;5046371;28;20104;-62
2023/12/28 11:47:21;;;;;;;29.92;5.43;;;11.40;99.90;;;;;;5045336;28;20040;-62
2023/12/28 11:49:51;;;;;;;39.13;6.18;;;11.40;99.90;;;;;;5046072;28;20498;-62
2023/12/28 11:52:43;;;;;;;34.03;6.43;;;11.40;99.90;;;;;;5066888;28;20041;-62
2023/12/28 11:55:09;;;;;;;32.42;5.10;;;11.40;99.90;;;;;;5030456;28;20048;-62
2023/12/28 11:57:37;;;;;;;28.42;5.45;;;11.40;99.90;;;;;;5016113;28;20036;-62
2023/12/28 12:00:04;;;;;;;26.33;5.38;;;11.40;99.90;;;;;;5051027;28;20049;-62
2023/12/28 12:02:30;;;;;;;34.20;6.03;;;11.40;99.90;;;;;;5052654;28;20543;-62
2023/12/28 12:05:01;;;;;;;29.80;6.25;;;11.40;99.90;;;;;;5043022;28;20329;-62
2023/12/28 12:07:30;;;;;;;30.08;6.13;;;11.40;99.90;;;;;;5046638;28;20036;-62
2023/12/28 12:09:59;;;;;;;31.88;6.22;;;11.50;99.90;;;;;;5030536;28;20041;-62
2023/12/28 12:12:26;;;;;;;30.02;5.88;;;11.50;99.90;;;;;;5048614;28;20041;-62
2023/12/28 12:14:52;;;;;;;29.48;5.53;;;11.50;99.90;;;;;;5049432;28;21239;-62
2023/12/28 12:17:18;;;;;;;35.92;7.25;;;11.50;99.90;;;;;;5050435;28;20127;-62
2023/12/28 12:19:48;;;;;;;31.38;6.18;;;11.60;99.90;;;;;;5061076;28;20098;-62
2023/12/28 12:22:15;;;;;;;35.40;6.30;;;11.60;99.90;;;;;;5032816;28;20059;-61
2023/12/28 12:24:43;;;;;;;30.65;6.85;;;11.60;99.90;;;;;;5049796;28;20052;-62
2023/12/28 12:27:09;;;;;;;31.25;7.40;;;11.70;99.90;;;;;;5050408;28;20048;-62
2023/12/28 12:29:35;;;;;;;38.28;6.85;;;11.70;99.90;;;;;;5050573;28;20033;-62
2023/12/28 12:32:03;;;;;;;32.45;6.07;;;11.70;99.90;;;;;;5051362;28;20491;-62
2023/12/28 12:34:28;;;;;;;28.42;7.00;;;11.70;99.90;;;;;;5032574;28;20044;-62
2023/12/28 12:36:55;;;;;;;34.03;6.65;;;11.80;99.90;;;;;;5049006;28;20051;-62